sensor_id;sensor_type;location;lat;lon;timestamp;P1;durP1;ratioP1;P2;durP2;ratioP2
14849;SDS011;7517;48.400;11.770;2022-12-07T00:01:50;4.57;;;3.40;;
14849;SDS011;7517;48.400;11.770;2022-12-07T00:04:17;3.43;;;3.13;;
14849;SDS011;7517;48.400;11.770;2022-12-07T00:06:45;3.83;;;3.47;;
14849;SDS011;7517;48.400;11.770;2022-12-07T00:09:17;4.10;;;3.80;;
14849;SDS011;7517;48.400;11.770;2022-12-07T00:11:47;3.73;;;3.43;;
14849;SDS011;7517;48.400;11.770;2022-12-07T00:14:16;6.07;;;3.57;;
14849;SDS011;7517;48.400;11.770;2022-12-07T00:16:48;3.70;;;3.40;;
14849;SDS011;7517;48.400;11.770;2022-12-07T00:19:17;3.60;;;3.30;;
14849;SDS011;7517;48.400;11.770;2022-12-07T00:21:44;4.33;;;3.83;;
14849;SDS011;7517;48.400;11.770;2022-12-07T00:24:11;5.53;;;4.03;;
14849;SDS011;7517;48.400;11.770;2022-12-07T00:26:39;4.10;;;3.70;;
14849;SDS011;7517;48.400;11.770;2022-12-07T00:29:09;3.83;;;3.50;;
14849;SDS011;7517;48.400;11.770;2022-12-07T00:31:42;4.10;;;3.70;;
14849;SDS011;7517;48.400;11.770;2022-12-07T00:34:12;3.53;;;3.27;;
14849;SDS011;7517;48.400;11.770;2022-12-07T00:36:42;3.53;;;3.13;;
14849;SDS011;7517;48.400;11.770;2022-12-07T00:39:09;3.77;;;3.47;;
14849;SDS011;7517;48.400;11.770;2022-12-07T00:41:37;4.77;;;3.90;;
14849;SDS011;7517;48.400;11.770;2022-12-07T00:44:04;3.43;;;3.13;;
14849;SDS011;7517;48.400;11.770;2022-12-07T00:46:31;5.00;;;3.40;;
14849;SDS011;7517;48.400;11.770;2022-12-07T00:48:58;3.97;;;3.67;;
14849;SDS011;7517;48.400;11.770;2022-12-07T00:51:27;3.80;;;3.50;;
14849;SDS011;7517;48.400;11.770;2022-12-07T00:53:54;4.07;;;3.77;;
14849;SDS011;7517;48.400;11.770;2022-12-07T00:56:22;3.87;;;3.50;;
14849;SDS011;7517;48.400;11.770;2022-12-07T00:58:52;4.20;;;3.80;;
14849;SDS011;7517;48.400;11.770;2022-12-07T01:01:20;3.80;;;3.50;;
14849;SDS011;7517;48.400;11.770;2022-12-07T01:03:48;3.63;;;3.33;;
14849;SDS011;7517;48.400;11.770;2022-12-07T01:06:15;4.23;;;3.83;;
14849;SDS011;7517;48.400;11.770;2022-12-07T01:08:45;4.00;;;3.70;;
14849;SDS011;7517;48.400;11.770;2022-12-07T01:11:13;3.87;;;3.57;;
14849;SDS011;7517;48.400;11.770;2022-12-07T01:13:42;4.33;;;3.93;;
14849;SDS011;7517;48.400;11.770;2022-12-07T01:16:11;4.17;;;3.77;;
14849;SDS011;7517;48.400;11.770;2022-12-07T01:18:40;7.43;;;3.80;;
14849;SDS011;7517;48.400;11.770;2022-12-07T01:21:12;4.17;;;3.77;;
14849;SDS011;7517;48.400;11.770;2022-12-07T01:23:42;4.40;;;4.00;;
14849;SDS011;7517;48.400;11.770;2022-12-07T01:26:13;3.40;;;3.20;;
14849;SDS011;7517;48.400;11.770;2022-12-07T01:28:43;4.33;;;3.90;;
14849;SDS011;7517;48.400;11.770;2022-12-07T01:31:11;3.70;;;3.40;;
14849;SDS011;7517;48.400;11.770;2022-12-07T01:33:41;4.00;;;3.70;;
14849;SDS011;7517;48.400;11.770;2022-12-07T01:36:12;3.93;;;3.63;;
14849;SDS011;7517;48.400;11.770;2022-12-07T01:38:42;3.87;;;3.57;;
14849;SDS011;7517;48.400;11.770;2022-12-07T01:41:11;4.73;;;4.07;;
14849;SDS011;7517;48.400;11.770;2022-12-07T01:44:06;4.27;;;3.63;;
14849;SDS011;7517;48.400;11.770;2022-12-07T01:46:57;3.80;;;3.50;;
14849;SDS011;7517;48.400;11.770;2022-12-07T01:49:28;4.63;;;3.40;;
14849;SDS011;7517;48.400;11.770;2022-12-07T01:52:04;5.63;;;4.17;;
14849;SDS011;7517;48.400;11.770;2022-12-07T01:54:42;3.97;;;3.57;;
14849;SDS011;7517;48.400;11.770;2022-12-07T01:57:11;3.60;;;3.30;;
14849;SDS011;7517;48.400;11.770;2022-12-07T01:59:44;3.83;;;3.50;;
14849;SDS011;7517;48.400;11.770;2022-12-07T02:02:17;3.57;;;3.27;;
14849;SDS011;7517;48.400;11.770;2022-12-07T02:04:49;4.13;;;3.77;;
14849;SDS011;7517;48.400;11.770;2022-12-07T02:07:18;7.20;;;4.03;;
14849;SDS011;7517;48.400;11.770;2022-12-07T02:09:47;4.50;;;3.60;;
14849;SDS011;7517;48.400;11.770;2022-12-07T02:12:14;3.93;;;3.63;;
14849;SDS011;7517;48.400;11.770;2022-12-07T02:14:43;4.10;;;3.70;;
14849;SDS011;7517;48.400;11.770;2022-12-07T02:17:11;4.00;;;3.70;;
14849;SDS011;7517;48.400;11.770;2022-12-07T02:20:03;4.60;;;3.87;;
14849;SDS011;7517;48.400;11.770;2022-12-07T02:26:15;10.43;;;4.10;;
14849;SDS011;7517;48.400;11.770;2022-12-07T02:29:42;3.83;;;3.30;;
14849;SDS011;7517;48.400;11.770;2022-12-07T02:32:22;4.33;;;3.70;;
14849;SDS011;7517;48.400;11.770;2022-12-07T02:34:55;3.50;;;3.20;;
14849;SDS011;7517;48.400;11.770;2022-12-07T02:37:33;6.67;;;3.83;;
14849;SDS011;7517;48.400;11.770;2022-12-07T02:40:08;7.53;;;4.10;;
14849;SDS011;7517;48.400;11.770;2022-12-07T02:42:44;5.03;;;4.30;;
14849;SDS011;7517;48.400;11.770;2022-12-07T02:45:21;3.70;;;3.40;;
14849;SDS011;7517;48.400;11.770;2022-12-07T02:47:55;5.60;;;3.87;;
14849;SDS011;7517;48.400;11.770;2022-12-07T02:50:26;5.00;;;3.70;;
14849;SDS011;7517;48.400;11.770;2022-12-07T02:52:54;4.30;;;3.30;;
14849;SDS011;7517;48.400;11.770;2022-12-07T02:55:22;4.90;;;3.47;;
14849;SDS011;7517;48.400;11.770;2022-12-07T02:58:05;6.30;;;3.80;;
14849;SDS011;7517;48.400;11.770;2022-12-07T03:00:52;3.90;;;3.60;;
14849;SDS011;7517;48.400;11.770;2022-12-07T03:03:30;4.73;;;3.80;;
14849;SDS011;7517;48.400;11.770;2022-12-07T03:06:01;3.87;;;3.47;;
14849;SDS011;7517;48.400;11.770;2022-12-07T03:08:44;5.17;;;3.90;;
14849;SDS011;7517;48.400;11.770;2022-12-07T03:11:22;4.00;;;3.70;;
14849;SDS011;7517;48.400;11.770;2022-12-07T03:13:59;4.73;;;3.77;;
14849;SDS011;7517;48.400;11.770;2022-12-07T03:16:37;3.67;;;3.37;;
14849;SDS011;7517;48.400;11.770;2022-12-07T03:19:13;3.80;;;3.50;;
14849;SDS011;7517;48.400;11.770;2022-12-07T03:21:46;4.43;;;4.03;;
14849;SDS011;7517;48.400;11.770;2022-12-07T03:24:21;9.27;;;4.77;;
14849;SDS011;7517;48.400;11.770;2022-12-07T03:26:54;5.30;;;3.63;;
14849;SDS011;7517;48.400;11.770;2022-12-07T03:29:30;3.63;;;3.33;;
14849;SDS011;7517;48.400;11.770;2022-12-07T03:32:04;4.20;;;3.80;;
14849;SDS011;7517;48.400;11.770;2022-12-07T03:34:40;6.07;;;4.03;;
14849;SDS011;7517;48.400;11.770;2022-12-07T03:37:17;4.27;;;3.87;;
14849;SDS011;7517;48.400;11.770;2022-12-07T03:39:54;6.03;;;4.03;;
14849;SDS011;7517;48.400;11.770;2022-12-07T03:42:28;4.37;;;3.87;;
14849;SDS011;7517;48.400;11.770;2022-12-07T03:44:56;9.57;;;3.83;;
14849;SDS011;7517;48.400;11.770;2022-12-07T03:47:26;4.00;;;3.63;;
14849;SDS011;7517;48.400;11.770;2022-12-07T03:50:02;4.20;;;3.80;;
14849;SDS011;7517;48.400;11.770;2022-12-07T03:52:39;5.10;;;3.70;;
14849;SDS011;7517;48.400;11.770;2022-12-07T03:55:11;4.13;;;3.73;;
14849;SDS011;7517;48.400;11.770;2022-12-07T03:57:47;6.43;;;3.50;;
14849;SDS011;7517;48.400;11.770;2022-12-07T04:00:18;3.97;;;3.67;;
14849;SDS011;7517;48.400;11.770;2022-12-07T04:02:47;6.77;;;4.37;;
14849;SDS011;7517;48.400;11.770;2022-12-07T04:05:18;4.50;;;4.10;;
14849;SDS011;7517;48.400;11.770;2022-12-07T04:07:46;4.23;;;3.83;;
14849;SDS011;7517;48.400;11.770;2022-12-07T04:10:13;4.53;;;4.13;;
14849;SDS011;7517;48.400;11.770;2022-12-07T04:12:40;4.40;;;4.00;;
14849;SDS011;7517;48.400;11.770;2022-12-07T04:15:08;4.33;;;3.93;;
14849;SDS011;7517;48.400;11.770;2022-12-07T04:17:35;7.73;;;4.33;;
14849;SDS011;7517;48.400;11.770;2022-12-07T04:20:05;4.60;;;4.20;;
14849;SDS011;7517;48.400;11.770;2022-12-07T04:22:33;4.53;;;4.13;;
14849;SDS011;7517;48.400;11.770;2022-12-07T04:25:01;4.70;;;4.30;;
14849;SDS011;7517;48.400;11.770;2022-12-07T04:27:28;4.53;;;4.13;;
14849;SDS011;7517;48.400;11.770;2022-12-07T04:29:55;4.83;;;4.40;;
14849;SDS011;7517;48.400;11.770;2022-12-07T04:32:22;5.43;;;4.30;;
14849;SDS011;7517;48.400;11.770;2022-12-07T04:34:50;5.17;;;4.67;;
14849;SDS011;7517;48.400;11.770;2022-12-07T04:37:19;6.03;;;4.37;;
14849;SDS011;7517;48.400;11.770;2022-12-07T04:39:46;11.30;;;4.87;;
14849;SDS011;7517;48.400;11.770;2022-12-07T04:42:13;4.20;;;3.90;;
14849;SDS011;7517;48.400;11.770;2022-12-07T04:44:40;4.80;;;4.40;;
14849;SDS011;7517;48.400;11.770;2022-12-07T04:47:07;6.87;;;4.90;;
14849;SDS011;7517;48.400;11.770;2022-12-07T04:49:34;4.53;;;4.13;;
14849;SDS011;7517;48.400;11.770;2022-12-07T04:52:02;5.80;;;5.00;;
14849;SDS011;7517;48.400;11.770;2022-12-07T04:54:30;5.17;;;4.77;;
14849;SDS011;7517;48.400;11.770;2022-12-07T04:56:57;8.70;;;4.60;;
14849;SDS011;7517;48.400;11.770;2022-12-07T04:59:25;5.07;;;4.20;;
14849;SDS011;7517;48.400;11.770;2022-12-07T05:01:52;4.43;;;4.13;;
14849;SDS011;7517;48.400;11.770;2022-12-07T05:04:19;5.63;;;4.90;;
14849;SDS011;7517;48.400;11.770;2022-12-07T05:06:48;4.67;;;4.23;;
14849;SDS011;7517;48.400;11.770;2022-12-07T05:09:16;9.37;;;4.80;;
14849;SDS011;7517;48.400;11.770;2022-12-07T05:11:44;5.10;;;4.60;;
14849;SDS011;7517;48.400;11.770;2022-12-07T05:14:15;10.73;;;4.73;;
14849;SDS011;7517;48.400;11.770;2022-12-07T05:16:45;7.93;;;4.80;;
14849;SDS011;7517;48.400;11.770;2022-12-07T05:19:15;4.53;;;4.13;;
14849;SDS011;7517;48.400;11.770;2022-12-07T05:21:43;5.20;;;4.70;;
14849;SDS011;7517;48.400;11.770;2022-12-07T05:24:11;5.17;;;4.60;;
14849;SDS011;7517;48.400;11.770;2022-12-07T05:26:41;4.67;;;4.20;;
14849;SDS011;7517;48.400;11.770;2022-12-07T05:29:11;5.00;;;4.60;;
14849;SDS011;7517;48.400;11.770;2022-12-07T05:31:40;4.57;;;4.17;;
14849;SDS011;7517;48.400;11.770;2022-12-07T05:34:07;4.77;;;4.27;;
14849;SDS011;7517;48.400;11.770;2022-12-07T05:36:35;4.90;;;4.50;;
14849;SDS011;7517;48.400;11.770;2022-12-07T05:39:02;7.40;;;4.50;;
14849;SDS011;7517;48.400;11.770;2022-12-07T05:41:30;4.97;;;4.57;;
14849;SDS011;7517;48.400;11.770;2022-12-07T05:44:16;5.60;;;4.20;;
14849;SDS011;7517;48.400;11.770;2022-12-07T05:46:43;4.83;;;4.43;;
14849;SDS011;7517;48.400;11.770;2022-12-07T05:49:10;4.43;;;4.03;;
14849;SDS011;7517;48.400;11.770;2022-12-07T05:51:37;4.90;;;4.50;;
14849;SDS011;7517;48.400;11.770;2022-12-07T05:54:05;5.50;;;5.00;;
14849;SDS011;7517;48.400;11.770;2022-12-07T05:56:32;4.83;;;4.43;;
14849;SDS011;7517;48.400;11.770;2022-12-07T05:58:59;4.83;;;4.43;;
14849;SDS011;7517;48.400;11.770;2022-12-07T06:01:45;4.40;;;4.00;;
14849;SDS011;7517;48.400;11.770;2022-12-07T06:04:12;5.87;;;5.07;;
14849;SDS011;7517;48.400;11.770;2022-12-07T06:06:39;5.90;;;5.23;;
14849;SDS011;7517;48.400;11.770;2022-12-07T06:09:07;5.80;;;5.27;;
14849;SDS011;7517;48.400;11.770;2022-12-07T06:11:34;8.33;;;5.50;;
14849;SDS011;7517;48.400;11.770;2022-12-07T06:14:18;5.27;;;4.77;;
14849;SDS011;7517;48.400;11.770;2022-12-07T06:16:47;5.87;;;4.40;;
14849;SDS011;7517;48.400;11.770;2022-12-07T06:19:14;4.83;;;4.43;;
14849;SDS011;7517;48.400;11.770;2022-12-07T06:21:42;5.00;;;4.57;;
14849;SDS011;7517;48.400;11.770;2022-12-07T06:24:09;5.57;;;4.63;;
14849;SDS011;7517;48.400;11.770;2022-12-07T06:26:38;5.67;;;4.70;;
14849;SDS011;7517;48.400;11.770;2022-12-07T06:29:06;5.27;;;4.77;;
14849;SDS011;7517;48.400;11.770;2022-12-07T06:31:35;5.90;;;4.80;;
14849;SDS011;7517;48.400;11.770;2022-12-07T06:34:04;5.33;;;4.43;;
14849;SDS011;7517;48.400;11.770;2022-12-07T06:36:35;5.50;;;4.43;;
14849;SDS011;7517;48.400;11.770;2022-12-07T06:39:03;5.80;;;4.73;;
14849;SDS011;7517;48.400;11.770;2022-12-07T06:41:31;6.30;;;4.83;;
14849;SDS011;7517;48.400;11.770;2022-12-07T06:43:58;5.33;;;4.80;;
14849;SDS011;7517;48.400;11.770;2022-12-07T06:46:26;5.77;;;4.90;;
14849;SDS011;7517;48.400;11.770;2022-12-07T06:48:53;6.13;;;5.63;;
14849;SDS011;7517;48.400;11.770;2022-12-07T06:51:21;5.00;;;4.60;;
14849;SDS011;7517;48.400;11.770;2022-12-07T06:53:48;5.10;;;4.60;;
14849;SDS011;7517;48.400;11.770;2022-12-07T06:56:15;5.70;;;5.20;;
14849;SDS011;7517;48.400;11.770;2022-12-07T06:58:43;6.77;;;5.53;;
14849;SDS011;7517;48.400;11.770;2022-12-07T07:01:10;6.60;;;5.67;;
14849;SDS011;7517;48.400;11.770;2022-12-07T07:03:38;5.30;;;4.90;;
14849;SDS011;7517;48.400;11.770;2022-12-07T07:06:06;8.23;;;5.60;;
14849;SDS011;7517;48.400;11.770;2022-12-07T07:08:35;5.53;;;5.03;;
14849;SDS011;7517;48.400;11.770;2022-12-07T07:11:04;5.30;;;4.80;;
14849;SDS011;7517;48.400;11.770;2022-12-07T07:13:32;5.60;;;5.03;;
14849;SDS011;7517;48.400;11.770;2022-12-07T07:16:00;5.43;;;4.53;;
14849;SDS011;7517;48.400;11.770;2022-12-07T07:18:28;4.97;;;4.47;;
14849;SDS011;7517;48.400;11.770;2022-12-07T07:20:55;4.47;;;4.17;;
14849;SDS011;7517;48.400;11.770;2022-12-07T07:23:23;7.77;;;5.03;;
14849;SDS011;7517;48.400;11.770;2022-12-07T07:25:51;7.50;;;5.07;;
14849;SDS011;7517;48.400;11.770;2022-12-07T07:28:19;5.30;;;4.73;;
14849;SDS011;7517;48.400;11.770;2022-12-07T07:30:46;9.40;;;6.23;;
14849;SDS011;7517;48.400;11.770;2022-12-07T07:33:13;5.50;;;5.00;;
14849;SDS011;7517;48.400;11.770;2022-12-07T07:35:41;8.57;;;5.47;;
14849;SDS011;7517;48.400;11.770;2022-12-07T07:38:08;9.93;;;6.80;;
14849;SDS011;7517;48.400;11.770;2022-12-07T07:40:35;15.30;;;8.53;;
14849;SDS011;7517;48.400;11.770;2022-12-07T07:43:04;13.07;;;7.80;;
14849;SDS011;7517;48.400;11.770;2022-12-07T07:45:31;15.23;;;8.47;;
14849;SDS011;7517;48.400;11.770;2022-12-07T07:47:58;13.10;;;8.50;;
14849;SDS011;7517;48.400;11.770;2022-12-07T07:50:26;15.00;;;7.83;;
14849;SDS011;7517;48.400;11.770;2022-12-07T07:52:53;8.40;;;6.93;;
14849;SDS011;7517;48.400;11.770;2022-12-07T07:55:20;9.90;;;7.00;;
14849;SDS011;7517;48.400;11.770;2022-12-07T07:57:47;7.50;;;6.70;;
14849;SDS011;7517;48.400;11.770;2022-12-07T08:00:16;8.10;;;6.27;;
14849;SDS011;7517;48.400;11.770;2022-12-07T08:02:44;6.80;;;5.97;;
14849;SDS011;7517;48.400;11.770;2022-12-07T08:05:12;9.40;;;6.27;;
14849;SDS011;7517;48.400;11.770;2022-12-07T08:07:40;6.60;;;5.97;;
14849;SDS011;7517;48.400;11.770;2022-12-07T08:10:09;5.67;;;5.10;;
14849;SDS011;7517;48.400;11.770;2022-12-07T08:12:39;7.67;;;5.63;;
14849;SDS011;7517;48.400;11.770;2022-12-07T08:15:24;7.97;;;6.30;;
14849;SDS011;7517;48.400;11.770;2022-12-07T08:17:52;7.63;;;5.97;;
14849;SDS011;7517;48.400;11.770;2022-12-07T08:20:20;6.97;;;6.30;;
14849;SDS011;7517;48.400;11.770;2022-12-07T08:22:47;7.67;;;5.90;;
14849;SDS011;7517;48.400;11.770;2022-12-07T08:25:14;8.77;;;5.93;;
14849;SDS011;7517;48.400;11.770;2022-12-07T08:27:42;7.63;;;6.83;;
14849;SDS011;7517;48.400;11.770;2022-12-07T08:30:09;8.80;;;6.63;;
14849;SDS011;7517;48.400;11.770;2022-12-07T08:32:38;9.97;;;7.23;;
14849;SDS011;7517;48.400;11.770;2022-12-07T08:35:06;8.53;;;7.50;;
14849;SDS011;7517;48.400;11.770;2022-12-07T08:37:35;7.87;;;6.53;;
14849;SDS011;7517;48.400;11.770;2022-12-07T08:40:02;8.27;;;6.53;;
14849;SDS011;7517;48.400;11.770;2022-12-07T08:42:31;8.13;;;6.93;;
14849;SDS011;7517;48.400;11.770;2022-12-07T08:45:03;6.77;;;5.93;;
14849;SDS011;7517;48.400;11.770;2022-12-07T08:47:32;23.13;;;6.80;;
14849;SDS011;7517;48.400;11.770;2022-12-07T08:50:03;9.07;;;6.80;;
14849;SDS011;7517;48.400;11.770;2022-12-07T08:52:33;20.93;;;7.10;;
14849;SDS011;7517;48.400;11.770;2022-12-07T08:55:02;7.87;;;6.67;;
14849;SDS011;7517;48.400;11.770;2022-12-07T08:57:32;7.37;;;5.87;;
14849;SDS011;7517;48.400;11.770;2022-12-07T09:00:02;7.33;;;5.77;;
14849;SDS011;7517;48.400;11.770;2022-12-07T09:02:31;6.73;;;6.03;;
14849;SDS011;7517;48.400;11.770;2022-12-07T09:04:59;6.77;;;5.20;;
14849;SDS011;7517;48.400;11.770;2022-12-07T09:07:27;5.87;;;5.27;;
14849;SDS011;7517;48.400;11.770;2022-12-07T09:09:58;6.07;;;5.30;;
14849;SDS011;7517;48.400;11.770;2022-12-07T09:12:26;5.97;;;5.37;;
14849;SDS011;7517;48.400;11.770;2022-12-07T09:14:53;6.30;;;5.50;;
14849;SDS011;7517;48.400;11.770;2022-12-07T09:17:20;6.23;;;5.63;;
14849;SDS011;7517;48.400;11.770;2022-12-07T09:19:47;6.90;;;6.03;;
14849;SDS011;7517;48.400;11.770;2022-12-07T09:22:14;7.40;;;6.40;;
14849;SDS011;7517;48.400;11.770;2022-12-07T09:24:43;6.23;;;5.10;;
14849;SDS011;7517;48.400;11.770;2022-12-07T09:27:10;6.30;;;5.70;;
14849;SDS011;7517;48.400;11.770;2022-12-07T09:29:38;6.73;;;5.90;;
14849;SDS011;7517;48.400;11.770;2022-12-07T09:32:05;6.17;;;5.43;;
14849;SDS011;7517;48.400;11.770;2022-12-07T09:34:32;6.87;;;6.17;;
14849;SDS011;7517;48.400;11.770;2022-12-07T09:37:00;6.33;;;5.73;;
14849;SDS011;7517;48.400;11.770;2022-12-07T09:39:28;6.90;;;5.77;;
14849;SDS011;7517;48.400;11.770;2022-12-07T09:41:57;6.47;;;5.87;;
14849;SDS011;7517;48.400;11.770;2022-12-07T09:44:25;7.43;;;6.23;;
14849;SDS011;7517;48.400;11.770;2022-12-07T09:46:54;6.40;;;5.80;;
14849;SDS011;7517;48.400;11.770;2022-12-07T09:49:23;6.63;;;6.03;;
14849;SDS011;7517;48.400;11.770;2022-12-07T09:52:00;6.30;;;5.70;;
14849;SDS011;7517;48.400;11.770;2022-12-07T09:54:43;6.43;;;5.77;;
14849;SDS011;7517;48.400;11.770;2022-12-07T09:57:17;9.67;;;6.03;;
14849;SDS011;7517;48.400;11.770;2022-12-07T09:59:49;7.53;;;6.47;;
14849;SDS011;7517;48.400;11.770;2022-12-07T10:02:23;6.97;;;6.20;;
14849;SDS011;7517;48.400;11.770;2022-12-07T10:05:03;6.23;;;5.67;;
14849;SDS011;7517;48.400;11.770;2022-12-07T10:07:37;6.13;;;5.53;;
14849;SDS011;7517;48.400;11.770;2022-12-07T10:10:05;6.30;;;5.70;;
14849;SDS011;7517;48.400;11.770;2022-12-07T10:12:58;6.97;;;6.27;;
14849;SDS011;7517;48.400;11.770;2022-12-07T10:15:50;7.00;;;6.30;;
14849;SDS011;7517;48.400;11.770;2022-12-07T10:18:28;7.27;;;5.73;;
14849;SDS011;7517;48.400;11.770;2022-12-07T10:21:02;6.97;;;5.67;;
14849;SDS011;7517;48.400;11.770;2022-12-07T10:23:37;7.30;;;6.33;;
14849;SDS011;7517;48.400;11.770;2022-12-07T10:29:14;6.10;;;5.50;;
14849;SDS011;7517;48.400;11.770;2022-12-07T10:31:49;8.10;;;6.27;;
14849;SDS011;7517;48.400;11.770;2022-12-07T10:34:23;7.20;;;6.50;;
14849;SDS011;7517;48.400;11.770;2022-12-07T10:37:06;10.10;;;6.27;;
14849;SDS011;7517;48.400;11.770;2022-12-07T10:39:45;6.53;;;5.87;;
14849;SDS011;7517;48.400;11.770;2022-12-07T10:42:16;6.40;;;5.80;;
14849;SDS011;7517;48.400;11.770;2022-12-07T10:44:47;6.33;;;5.73;;
14849;SDS011;7517;48.400;11.770;2022-12-07T10:47:19;6.80;;;5.57;;
14849;SDS011;7517;48.400;11.770;2022-12-07T10:53:22;5.97;;;5.37;;
14849;SDS011;7517;48.400;11.770;2022-12-07T10:56:24;6.73;;;5.10;;
14849;SDS011;7517;48.400;11.770;2022-12-07T10:59:19;5.87;;;5.30;;
14849;SDS011;7517;48.400;11.770;2022-12-07T11:02:29;5.67;;;5.07;;
14849;SDS011;7517;48.400;11.770;2022-12-07T11:05:18;5.97;;;5.37;;
14849;SDS011;7517;48.400;11.770;2022-12-07T11:07:58;7.67;;;5.43;;
14849;SDS011;7517;48.400;11.770;2022-12-07T11:10:39;5.60;;;5.00;;
14849;SDS011;7517;48.400;11.770;2022-12-07T11:13:22;5.67;;;5.17;;
14849;SDS011;7517;48.400;11.770;2022-12-07T11:16:15;5.70;;;5.10;;
14849;SDS011;7517;48.400;11.770;2022-12-07T11:19:04;6.70;;;6.10;;
14849;SDS011;7517;48.400;11.770;2022-12-07T11:21:52;6.27;;;5.67;;
14849;SDS011;7517;48.400;11.770;2022-12-07T11:24:25;5.57;;;5.00;;
14849;SDS011;7517;48.400;11.770;2022-12-07T11:27:09;6.40;;;5.80;;
14849;SDS011;7517;48.400;11.770;2022-12-07T11:29:51;6.00;;;5.20;;
14849;SDS011;7517;48.400;11.770;2022-12-07T11:35:38;8.10;;;5.17;;
14849;SDS011;7517;48.400;11.770;2022-12-07T11:38:24;5.37;;;4.47;;
14849;SDS011;7517;48.400;11.770;2022-12-07T11:41:05;7.13;;;5.20;;
14849;SDS011;7517;48.400;11.770;2022-12-07T11:43:41;5.60;;;5.10;;
14849;SDS011;7517;48.400;11.770;2022-12-07T11:46:22;15.83;;;5.67;;
14849;SDS011;7517;48.400;11.770;2022-12-07T11:48:57;5.67;;;5.10;;
14849;SDS011;7517;48.400;11.770;2022-12-07T11:51:33;7.00;;;4.63;;
14849;SDS011;7517;48.400;11.770;2022-12-07T11:54:05;5.67;;;4.83;;
14849;SDS011;7517;48.400;11.770;2022-12-07T11:56:42;6.70;;;5.00;;
14849;SDS011;7517;48.400;11.770;2022-12-07T11:59:16;5.50;;;5.00;;
14849;SDS011;7517;48.400;11.770;2022-12-07T12:01:53;7.13;;;5.10;;
14849;SDS011;7517;48.400;11.770;2022-12-07T12:04:34;7.20;;;4.93;;
14849;SDS011;7517;48.400;11.770;2022-12-07T12:07:17;5.40;;;4.90;;
14849;SDS011;7517;48.400;11.770;2022-12-07T12:09:49;6.37;;;5.20;;
14849;SDS011;7517;48.400;11.770;2022-12-07T12:12:29;5.90;;;5.30;;
14849;SDS011;7517;48.400;11.770;2022-12-07T12:15:26;5.30;;;4.57;;
14849;SDS011;7517;48.400;11.770;2022-12-07T12:18:25;5.13;;;4.67;;
14849;SDS011;7517;48.400;11.770;2022-12-07T12:21:17;4.73;;;4.17;;
14849;SDS011;7517;48.400;11.770;2022-12-07T12:23:50;5.77;;;4.77;;
14849;SDS011;7517;48.400;11.770;2022-12-07T12:26:24;5.40;;;4.90;;
14849;SDS011;7517;48.400;11.770;2022-12-07T12:28:55;5.13;;;4.30;;
14849;SDS011;7517;48.400;11.770;2022-12-07T12:31:31;5.97;;;4.30;;
14849;SDS011;7517;48.400;11.770;2022-12-07T12:34:02;5.50;;;5.00;;
14849;SDS011;7517;48.400;11.770;2022-12-07T12:36:47;5.33;;;4.63;;
14849;SDS011;7517;48.400;11.770;2022-12-07T12:39:15;7.60;;;4.77;;
14849;SDS011;7517;48.400;11.770;2022-12-07T12:50:31;4.27;;;3.87;;
14849;SDS011;7517;48.400;11.770;2022-12-07T12:53:03;3.73;;;3.13;;
14849;SDS011;7517;48.400;11.770;2022-12-07T13:01:50;4.20;;;3.60;;
14849;SDS011;7517;48.400;11.770;2022-12-07T13:04:25;5.73;;;4.03;;
14849;SDS011;7517;48.400;11.770;2022-12-07T13:10:33;7.27;;;3.73;;
14849;SDS011;7517;48.400;11.770;2022-12-07T13:22:34;3.30;;;3.00;;
14849;SDS011;7517;48.400;11.770;2022-12-07T13:25:19;4.13;;;3.10;;
14849;SDS011;7517;48.400;11.770;2022-12-07T13:28:09;5.30;;;3.30;;
14849;SDS011;7517;48.400;11.770;2022-12-07T13:30:44;16.97;;;4.43;;
14849;SDS011;7517;48.400;11.770;2022-12-07T13:33:23;8.37;;;4.13;;
14849;SDS011;7517;48.400;11.770;2022-12-07T13:35:55;3.50;;;3.20;;
14849;SDS011;7517;48.400;11.770;2022-12-07T13:38:26;5.07;;;3.83;;
14849;SDS011;7517;48.400;11.770;2022-12-07T13:41:01;3.80;;;3.40;;
14849;SDS011;7517;48.400;11.770;2022-12-07T13:43:42;3.47;;;3.17;;
14849;SDS011;7517;48.400;11.770;2022-12-07T13:46:17;4.80;;;3.60;;
14849;SDS011;7517;48.400;11.770;2022-12-07T13:48:53;4.00;;;3.60;;
14849;SDS011;7517;48.400;11.770;2022-12-07T13:51:22;5.70;;;4.00;;
14849;SDS011;7517;48.400;11.770;2022-12-07T13:53:52;4.07;;;3.50;;
14849;SDS011;7517;48.400;11.770;2022-12-07T13:56:24;5.67;;;3.57;;
14849;SDS011;7517;48.400;11.770;2022-12-07T13:58:59;4.40;;;3.53;;
14849;SDS011;7517;48.400;11.770;2022-12-07T14:01:26;3.67;;;3.10;;
14849;SDS011;7517;48.400;11.770;2022-12-07T14:04:04;3.70;;;3.40;;
14849;SDS011;7517;48.400;11.770;2022-12-07T14:06:49;10.60;;;3.87;;
14849;SDS011;7517;48.400;11.770;2022-12-07T14:09:18;4.00;;;3.37;;
14849;SDS011;7517;48.400;11.770;2022-12-07T14:11:50;6.03;;;3.50;;
14849;SDS011;7517;48.400;11.770;2022-12-07T14:14:21;3.20;;;2.97;;
14849;SDS011;7517;48.400;11.770;2022-12-07T14:16:56;3.27;;;2.93;;
14849;SDS011;7517;48.400;11.770;2022-12-07T14:19:40;3.40;;;3.10;;
14849;SDS011;7517;48.400;11.770;2022-12-07T14:25:17;7.37;;;3.30;;
14849;SDS011;7517;48.400;11.770;2022-12-07T14:27:49;4.43;;;3.50;;
14849;SDS011;7517;48.400;11.770;2022-12-07T14:30:21;5.27;;;3.70;;
14849;SDS011;7517;48.400;11.770;2022-12-07T14:32:52;4.27;;;3.87;;
14849;SDS011;7517;48.400;11.770;2022-12-07T14:35:22;5.20;;;3.17;;
14849;SDS011;7517;48.400;11.770;2022-12-07T14:37:49;5.63;;;3.90;;
14849;SDS011;7517;48.400;11.770;2022-12-07T14:40:18;6.03;;;3.93;;
14849;SDS011;7517;48.400;11.770;2022-12-07T14:42:50;6.50;;;3.90;;
14849;SDS011;7517;48.400;11.770;2022-12-07T14:45:22;4.90;;;3.77;;
14849;SDS011;7517;48.400;11.770;2022-12-07T14:47:49;3.50;;;3.20;;
14849;SDS011;7517;48.400;11.770;2022-12-07T14:50:18;4.33;;;3.93;;
14849;SDS011;7517;48.400;11.770;2022-12-07T14:52:48;13.17;;;4.10;;
14849;SDS011;7517;48.400;11.770;2022-12-07T14:55:22;6.00;;;4.43;;
14849;SDS011;7517;48.400;11.770;2022-12-07T14:57:53;10.03;;;7.50;;
14849;SDS011;7517;48.400;11.770;2022-12-07T15:00:21;13.70;;;9.63;;
14849;SDS011;7517;48.400;11.770;2022-12-07T15:02:51;11.43;;;8.07;;
14849;SDS011;7517;48.400;11.770;2022-12-07T15:05:19;18.13;;;12.30;;
14849;SDS011;7517;48.400;11.770;2022-12-07T15:07:47;17.87;;;12.43;;
14849;SDS011;7517;48.400;11.770;2022-12-07T15:10:16;10.23;;;6.90;;
14849;SDS011;7517;48.400;11.770;2022-12-07T15:12:46;5.80;;;5.00;;
14849;SDS011;7517;48.400;11.770;2022-12-07T15:15:15;8.23;;;4.40;;
14849;SDS011;7517;48.400;11.770;2022-12-07T15:17:42;5.70;;;4.70;;
14849;SDS011;7517;48.400;11.770;2022-12-07T15:20:11;5.13;;;4.63;;
14849;SDS011;7517;48.400;11.770;2022-12-07T15:22:42;8.27;;;5.00;;
14849;SDS011;7517;48.400;11.770;2022-12-07T15:25:12;6.13;;;5.03;;
14849;SDS011;7517;48.400;11.770;2022-12-07T15:27:40;8.40;;;5.03;;
14849;SDS011;7517;48.400;11.770;2022-12-07T15:30:07;7.83;;;5.57;;
14849;SDS011;7517;48.400;11.770;2022-12-07T15:32:36;13.60;;;5.33;;
14849;SDS011;7517;48.400;11.770;2022-12-07T15:35:04;8.13;;;6.17;;
14849;SDS011;7517;48.400;11.770;2022-12-07T15:37:34;15.00;;;6.73;;
14849;SDS011;7517;48.400;11.770;2022-12-07T15:40:01;8.30;;;5.43;;
14849;SDS011;7517;48.400;11.770;2022-12-07T15:42:29;5.77;;;4.90;;
14849;SDS011;7517;48.400;11.770;2022-12-07T15:44:56;5.17;;;4.10;;
14849;SDS011;7517;48.400;11.770;2022-12-07T15:47:28;9.53;;;4.77;;
14849;SDS011;7517;48.400;11.770;2022-12-07T15:49:57;10.80;;;4.43;;
14849;SDS011;7517;48.400;11.770;2022-12-07T15:52:25;7.27;;;4.70;;
14849;SDS011;7517;48.400;11.770;2022-12-07T15:54:52;7.03;;;4.90;;
14849;SDS011;7517;48.400;11.770;2022-12-07T15:57:19;8.57;;;5.27;;
14849;SDS011;7517;48.400;11.770;2022-12-07T15:59:46;6.60;;;5.10;;